Latest Weather Observations for Coles Point

IDS60801

Issued at 10:35 pm CST Thursday 24 April 2014 (issued every 30 minutes, with the page automatically refreshed every 10 minutes)

About weather observations | Map of weather stations | Latest weather observations for SA | Other Formats
Station Details ID: 018191 Name: COLES POINT Lat: -34.37 Lon: 135.37 Height: 28.0 m
Data from the previous 72 hours. | See also: Recent months at Coles Point
Date/Time
CST
Temp
°C
App
Temp
°C
Dew
Point
Rel
Hum
%
Delta-T
°C
Wind Press
QNH
hPa
Press
MSL
hPa
Rain
since 9 am
mm
Dir
 
Spd
km/h
Gust
km/h
Spd
kts
Gust
kts
24/10:30pm 12.8 10.2 9.4 80 1.7 NE 13 17 7 9 1019.1 1019.0 0.0
24/10:00pm 12.0 9.4 9.4 84 1.3 NE 13 15 7 8 1019.1 - 0.0
24/09:30pm 12.4 9.8 9.4 82 1.5 ENE 13 15 7 8 1019.2 1019.1 0.0
24/09:00pm 12.0 9.7 9.0 82 1.5 ENE 11 11 6 6 1019.3 1019.2 0.0
24/08:30pm 12.5 10.6 9.0 79 1.8 ENE 9 11 5 6 1019.0 1018.9 0.0
24/08:00pm 13.4 10.8 9.5 77 2.0 ENE 13 15 7 8 1018.9 - 0.0
24/07:30pm 12.9 11.1 9.4 79 1.8 E 9 11 5 6 1018.7 1018.6 0.0
24/07:00pm 13.6 11.4 9.3 75 2.2 E 11 13 6 7 1018.5 - 0.0
24/06:30pm 14.7 12.1 9.5 71 2.7 E 13 19 7 10 1018.2 1018.2 0.0
24/06:00pm 15.9 13.4 9.8 67 3.2 E 13 17 7 9 1017.9 1017.9 0.0
24/05:30pm 17.7 14.1 9.8 60 4.2 E 19 22 10 12 1017.6 1017.6 0.0
24/05:00pm 19.1 15.9 9.9 55 4.9 SE 17 22 9 12 1017.6 - 0.0
24/04:30pm 20.0 17.6 9.9 52 5.4 ESE 13 17 7 9 1017.5 1017.5 0.0
24/04:00pm 19.7 16.2 10.1 54 5.2 S 19 26 10 14 1017.5 - 0.0
24/03:30pm 20.5 17.0 10.9 54 5.2 SSW 20 26 11 14 1017.4 1017.4 0.0
24/03:00pm 20.5 16.6 10.9 54 5.2 SSW 22 32 12 17 1017.4 1017.4 0.0
24/02:30pm 20.4 17.1 11.6 57 4.9 SSW 20 33 11 18 1017.4 1017.4 0.0
24/02:00pm 19.5 16.7 11.3 59 4.5 S 17 26 9 14 1017.6 - 0.0
24/01:30pm 19.3 16.1 11.1 59 4.5 S 19 26 10 14 1017.9 1017.9 0.0
24/01:00pm 18.8 15.7 11.6 63 4.0 S 19 24 10 13 1018.5 - 0.0
24/12:30pm 18.7 16.8 11.8 64 3.8 SE 13 19 7 10 1019.0 1018.9 0.0
24/12:00pm 19.0 16.0 11.8 63 4.0 SE 19 24 10 13 1019.2 1019.1 0.0
24/11:30am 19.3 16.4 12.3 64 3.9 SE 19 24 10 13 1019.3 1019.2 0.0
24/11:00am 18.6 16.1 12.4 67 3.5 SE 17 22 9 12 1019.6 - 0.0
24/10:30am 18.7 15.9 13.3 71 3.1 SE 20 24 11 13 1019.5 1019.4 0.0
24/10:00am 18.3 15.8 14.0 76 2.5 SSE 20 30 11 16 1019.5 - 0.0
24/09:30am 17.7 16.2 14.2 80 2.0 SE 15 22 8 12 1019.4 1019.3 0.0
24/09:00am 17.0 15.9 14.3 84 1.5 SE 13 19 7 10 1019.4 1019.3 -
24/08:30am 16.7 15.3 14.5 87 1.3 SSE 15 22 8 12 1019.1 1019.0 -
24/08:00am 15.6 16.0 14.8 95 0.5 SSE 6 7 3 4 1018.5 - -
24/07:30am 13.7 13.5 13.1 96 0.3 S 6 7 3 4 1018.1 1018.1 -
24/07:00am 12.6 12.7 11.5 93 0.6 S 2 4 1 2 1017.7 - -
24/06:30am 14.3 14.2 13.3 94 0.6 S 6 7 3 4 1017.5 1017.5 -
24/06:00am 14.8 14.9 14.0 95 0.4 SSW 6 9 3 5 1017.4 1017.4 -
24/05:30am 15.4 15.7 14.6 95 0.5 SW 6 6 3 3 1017.0 1017.0 -
24/05:00am 15.5 17.0 14.7 95 0.5 CALM 0 0 0 0 1016.7 - -
24/04:30am 15.4 15.7 14.6 95 0.5 SSW 6 9 3 5 1016.5 1016.5 -
24/04:00am 15.4 16.9 14.6 95 0.5 CALM 0 0 0 0 1016.2 - -
24/03:30am 14.8 15.4 14.2 96 0.3 W 4 4 2 2 1016.3 1016.3 -
24/03:00am 14.5 14.4 13.9 96 0.3 WNW 7 9 4 5 1016.4 1016.4 0.4
24/02:30am 15.7 16.0 15.1 96 0.3 WNW 7 9 4 5 1016.4 1016.4 -
24/02:00am 16.0 16.0 15.2 95 0.5 W 9 13 5 7 1016.4 - -
24/01:30am 15.9 15.7 15.6 98 0.2 WNW 11 19 6 10 1016.4 1016.4 -
24/01:00am 15.0 14.5 14.8 99 0.1 NW 11 13 6 7 1016.4 - -
24/12:30am 13.1 12.3 12.8 98 0.2 NW 9 13 5 7 1016.5 1016.5 -
24/12:00am 13.9 13.3 13.6 98 0.2 NW 9 9 5 5 1016.5 1016.5 -
 
Date/Time
CST
Temp
°C
App
Temp
°C
Dew
Point
Rel
Hum
%
Delta-T
°C
Wind Press
QNH
hPa
Press
MSL
hPa
Rain
since 9 am
mm
Dir
 
Spd
km/h
Gust
km/h
Spd
kts
Gust
kts
23/11:30pm 14.5 13.7 14.0 97 0.3 NW 11 11 6 6 1016.6 1016.6 -
23/11:00pm 15.4 14.9 14.9 97 0.3 NW 11 15 6 8 1016.7 - -
23/10:30pm 15.5 15.0 15.0 97 0.3 NW 11 15 6 8 1016.8 1016.8 -
23/10:00pm 15.5 14.6 14.9 96 0.3 NW 13 17 7 9 1016.8 - -
23/09:30pm 15.4 14.5 14.8 96 0.3 NW 13 17 7 9 1016.7 1016.7 -
23/09:00pm 15.6 15.1 14.8 95 0.5 NW 11 13 6 7 1016.5 1016.5 0.4
23/08:30pm 15.3 14.7 14.7 96 0.3 NW 11 13 6 7 1016.3 1016.3 -
23/08:00pm 14.9 14.6 14.3 96 0.3 W 9 13 5 7 1016.4 - -
23/07:30pm 15.6 12.8 13.1 85 1.4 WSW 20 28 11 15 1016.3 1016.3 -
23/07:00pm 16.0 14.0 14.0 88 1.1 NW 17 20 9 11 1015.8 - -
23/06:30pm 16.0 14.7 13.8 87 1.2 NW 13 19 7 10 1015.4 1015.4 -
23/06:00pm 16.0 13.8 13.3 84 1.5 NW 17 20 9 11 1015.3 1015.3 -
23/05:30pm 16.8 14.1 12.9 78 2.2 WNW 19 24 10 13 1015.3 1015.3 -
23/05:00pm 17.1 14.3 13.2 78 2.2 NW 20 24 11 13 1015.4 - -
23/04:30pm 18.0 15.2 13.3 74 2.7 NW 20 26 11 14 1015.4 1015.4 -
23/04:00pm 17.5 15.0 13.4 77 2.3 NW 19 22 10 12 1015.4 - -
23/03:30pm 18.6 15.9 13.5 72 2.9 NW 20 26 11 14 1015.3 1015.3 -
23/03:00pm 18.7 15.7 13.6 72 2.9 NW 22 26 12 14 1015.2 1015.2 -
23/02:30pm 18.0 14.4 13.1 73 2.8 NW 24 28 13 15 1015.3 1015.3 -
23/02:00pm 17.1 13.7 12.6 75 2.5 NW 22 28 12 15 1015.3 - -
23/01:30pm 17.2 13.8 12.5 74 2.6 NW 22 28 12 15 1015.6 1015.6 -
23/01:00pm 18.1 14.3 12.3 69 3.2 NW 24 28 13 15 1016.1 - -
23/12:30pm 18.2 15.1 12.2 68 3.3 NNW 20 26 11 14 1016.6 1016.6 -
23/12:00pm 18.0 14.9 11.6 66 3.5 NNW 19 26 10 14 1017.0 1017.0 -
23/11:30am 17.7 14.9 12.6 72 2.8 NNW 19 22 10 12 1017.7 1017.7 0.0
23/11:00am 17.4 14.5 12.3 72 2.8 NNW 19 22 10 12 1018.1 - 0.0
23/10:30am 17.3 14.6 11.6 69 3.1 NW 17 20 9 11 1018.6 1018.5 0.0
23/10:00am 16.9 13.7 11.4 70 3.0 NNW 19 22 10 12 1018.8 - 0.0
23/09:30am 13.9 11.9 8.5 70 2.7 NE 9 11 5 6 1018.9 1018.8 0.0
23/09:00am 11.7 9.7 8.7 82 1.5 ENE 9 11 5 6 1019.1 1019.0 -
23/08:30am 8.9 5.7 7.0 88 0.9 ENE 13 15 7 8 1019.0 1018.9 -
23/08:00am 8.3 4.9 7.7 96 0.3 NE 15 19 8 10 1018.9 - -
23/07:30am 6.7 3.0 6.1 96 0.3 NE 15 17 8 9 1018.5 1018.4 -
23/07:00am 6.0 2.0 5.1 94 0.4 NE 15 17 8 9 1018.2 - -
23/06:30am 6.1 2.1 4.9 92 0.5 ENE 15 15 8 8 1017.8 1017.8 -
23/06:00am 6.1 3.2 4.6 90 0.6 ENE 9 13 5 7 1017.7 1017.7 -
23/05:30am 6.5 3.7 5.3 92 0.5 NE 9 15 5 8 1017.5 1017.5 -
23/05:00am 6.3 3.8 4.8 90 0.7 ENE 7 11 4 6 1017.7 - -
23/04:30am 6.9 3.0 5.5 91 0.6 ENE 15 15 8 8 1017.6 1017.6 -
23/04:00am 7.1 3.3 5.7 91 0.6 NE 15 17 8 9 1017.5 - -
23/03:30am 7.6 3.9 6.5 93 0.5 NE 15 17 8 9 1017.7 1017.7 -
23/03:00am 7.8 4.5 6.4 91 0.6 NE 13 15 7 8 1017.9 1017.9 0.0
23/02:30am 7.7 4.0 6.2 90 0.7 NE 15 15 8 8 1018.2 1018.2 -
23/02:00am 8.2 4.6 6.7 90 0.7 NE 15 15 8 8 1018.7 - -
23/01:30am 7.9 5.8 6.0 88 0.9 NE 6 9 3 5 1019.1 1019.0 -
23/01:00am 8.9 7.3 6.5 85 1.1 NNE 4 6 2 3 1019.2 - -
23/12:30am 8.7 6.8 6.7 87 0.9 NE 6 13 3 7 1019.4 1019.3 -
23/12:00am 9.3 8.3 7.3 87 0.9 NNE 2 4 1 2 1019.5 1019.4 -
 
Date/Time
CST
Temp
°C
App
Temp
°C
Dew
Point
Rel
Hum
%
Delta-T
°C
Wind Press
QNH
hPa
Press
MSL
hPa
Rain
since 9 am
mm
Dir
 
Spd
km/h
Gust
km/h
Spd
kts
Gust
kts
22/11:30pm 9.4 8.4 7.2 86 1.0 NE 2 4 1 2 1019.6 1019.5 -
22/11:00pm 10.0 9.1 7.8 86 1.1 NE 2 4 1 2 1020.0 - -
22/10:30pm 9.5 8.1 7.4 87 1.0 NE 4 9 2 5 1020.1 1020.0 -
22/10:00pm 10.1 8.4 7.5 84 1.2 ESE 6 7 3 4 1020.1 - -
22/09:30pm 12.1 10.7 9.7 85 1.2 ESE 7 9 4 5 1020.1 1020.0 -
22/09:00pm 10.3 9.0 7.7 84 1.2 SSE 4 4 2 2 1020.1 1020.0 0.0
22/08:30pm 12.1 10.5 8.8 80 1.6 SSE 7 7 4 4 1019.9 1019.8 -
22/08:00pm 12.7 10.9 9.3 80 1.7 SSE 9 9 5 5 1019.6 - -
22/07:30pm 13.0 11.1 8.9 76 2.1 SSE 9 9 5 5 1019.5 1019.4 -
22/07:00pm 14.0 12.3 9.8 76 2.2 SSE 9 11 5 6 1019.5 - -
22/06:30pm 14.6 13.0 8.8 68 2.9 S 7 9 4 5 1019.3 1019.2 -
22/06:00pm 16.2 14.0 9.2 63 3.6 S 11 15 6 8 1019.0 1018.9 -
22/05:30pm 17.2 14.6 10.6 65 3.5 SSW 15 19 8 10 1018.9 1018.8 -
22/05:00pm 17.2 14.4 10.1 63 3.8 SSW 15 19 8 10 1018.9 - -
22/04:30pm 17.7 14.5 10.1 61 4.0 SSW 17 20 9 11 1018.7 1018.6 -
22/04:00pm 18.2 15.3 9.5 57 4.6 SSW 15 19 8 10 1018.6 - -
22/03:30pm 18.8 15.0 9.0 53 5.1 SSW 19 22 10 12 1018.6 1018.5 -
22/03:00pm 18.7 14.9 9.8 56 4.7 SSW 20 26 11 14 1018.5 1018.4 -
22/02:30pm 19.0 16.0 10.6 58 4.5 SSW 17 26 9 14 1018.2 1018.2 -
22/02:00pm 19.7 16.0 10.1 54 5.2 SSW 20 26 11 14 1018.4 - 0.0
22/01:30pm 18.5 14.6 9.3 55 4.8 SSW 20 26 11 14 1018.5 1018.4 0.0
22/01:00pm 19.4 15.7 9.3 52 5.3 SSW 19 24 10 13 1018.7 - 0.0
22/12:30pm 19.8 15.9 9.4 51 5.5 SSW 20 26 11 14 1019.0 1018.9 0.0
22/12:00pm 19.1 15.1 9.0 52 5.3 SW 20 26 11 14 1019.3 1019.2 0.0
22/11:30am 19.0 15.1 8.6 51 5.4 SSW 19 24 10 13 1019.3 1019.2 0.0
22/11:00am 19.1 15.3 9.0 52 5.3 SSW 19 24 10 13 1019.4 - 0.0
22/10:30am 18.7 14.7 8.9 53 5.1 S 20 30 11 16 1019.5 1019.4 0.0
22/10:00am 18.2 13.4 9.0 55 4.8 S 24 32 13 17 1019.4 - 0.0
22/09:30am 17.4 13.1 9.3 59 4.2 S 22 30 12 16 1019.3 1019.2 0.0
22/09:00am 17.7 14.0 10.3 62 3.9 S 20 26 11 14 1019.3 1019.2 -
22/08:30am 16.6 14.1 11.1 70 3.0 S 15 20 8 11 1019.1 1019.0 -
22/08:00am 14.7 13.7 10.9 78 2.0 SSE 7 9 4 5 1018.7 - -
22/07:30am 13.3 11.7 10.3 82 1.6 SSE 9 11 5 6 1018.0 1018.0 -
22/07:00am 12.8 11.1 10.0 83 1.4 SSE 9 11 5 6 1017.6 - -
22/06:30am 12.6 11.0 10.3 86 1.2 S 9 11 5 6 1017.2 1017.2 -
22/06:00am 13.0 11.2 10.7 86 1.2 S 11 13 6 7 1016.9 1016.9 -
22/05:30am 13.3 11.5 10.7 84 1.4 SSE 11 15 6 8 1016.7 1016.7 -
22/05:00am 13.7 12.4 11.2 85 1.3 S 9 11 5 6 1016.4 - -
22/04:30am 13.5 12.8 11.4 87 1.1 S 6 7 3 4 1016.1 1016.1 -
22/04:00am 14.3 13.5 11.8 85 1.3 S 7 9 4 5 1015.8 - -
22/03:30am 14.6 13.5 11.9 84 1.5 S 9 13 5 7 1015.4 1015.4 -
22/03:00am 14.0 13.2 11.7 86 1.2 S 7 11 4 6 1015.5 1015.5 0.0
22/02:30am 13.8 13.2 11.7 87 1.1 S 6 7 3 4 1015.3 1015.3 -
22/02:00am 14.4 12.9 11.9 85 1.3 S 11 11 6 6 1014.9 - -
22/01:30am 14.7 13.6 11.8 83 1.6 S 9 13 5 7 1014.8 1014.8 -
22/01:00am 15.9 13.5 12.5 80 1.9 S 17 20 9 11 1014.8 - -
22/12:30am 16.1 14.1 12.8 81 1.8 S 15 22 8 12 1014.5 1014.5 -
22/12:00am 16.5 14.2 13.0 80 1.9 S 17 24 9 13 1014.4 1014.4 -
 
Date/Time
CST
Temp
°C
App
Temp
°C
Dew
Point
Rel
Hum
%
Delta-T
°C
Wind Press
QNH
hPa
Press
MSL
hPa
Rain
since 9 am
mm
Dir
 
Spd
km/h
Gust
km/h
Spd
kts
Gust
kts
21/11:30pm 16.8 14.2 13.3 80 2.0 S 19 26 10 14 1014.1 1014.1 -
21/11:00pm 17.1 14.1 13.6 80 2.0 S 22 30 12 16 1013.5 - -

Other Formats:

Comma delimited format used in spreadsheet applications
http://www.bom.gov.au/fwo/IDS60801/IDS60801.94658.axf

JavaScript Object Notation format (JSON) in row-major order
http://www.bom.gov.au/fwo/IDS60801/IDS60801.94658.json